createdAt,value
2018-03-28T00:02:19.958Z,12.60
2018-03-28T00:04:49.817Z,11.88
2018-03-28T00:07:19.007Z,13.90
2018-03-28T00:09:48.890Z,13.38
2018-03-28T00:12:17.966Z,17.00
2018-03-28T00:14:47.154Z,15.50
2018-03-28T00:17:17.015Z,13.43
2018-03-28T00:19:46.082Z,11.60
2018-03-28T00:22:15.229Z,15.23
2018-03-28T00:24:44.299Z,15.77
2018-03-28T00:27:13.402Z,12.30
2018-03-28T00:29:42.490Z,13.07
2018-03-28T00:32:11.561Z,13.98
2018-03-28T00:34:41.454Z,11.73
2018-03-28T00:37:11.343Z,14.40
2018-03-28T00:39:40.657Z,12.88
2018-03-28T00:42:09.721Z,16.23
2018-03-28T00:44:39.577Z,14.75
2018-03-28T00:47:09.848Z,15.77
2018-03-28T00:49:39.685Z,17.60
2018-03-28T00:52:08.775Z,15.68
2018-03-28T00:54:38.670Z,12.52
2018-03-28T00:57:07.735Z,14.18
2018-03-28T00:59:36.814Z,18.65
2018-03-28T01:02:05.899Z,15.07
2018-03-28T01:04:34.991Z,15.95
2018-03-28T01:07:04.825Z,17.87
2018-03-28T01:09:34.653Z,13.77
2018-03-28T01:12:04.550Z,13.93
2018-03-28T01:14:33.633Z,19.52
2018-03-28T01:17:02.762Z,15.60
2018-03-28T01:19:31.892Z,15.77
2018-03-28T01:22:00.967Z,14.93
2018-03-28T01:24:30.133Z,14.73
2018-03-28T01:26:59.970Z,13.75
2018-03-28T01:29:29.889Z,22.40
2018-03-28T01:31:59.730Z,15.55
2018-03-28T01:34:28.838Z,17.05
2018-03-28T01:36:58.673Z,14.10
2018-03-28T01:39:27.763Z,14.18
2018-03-28T01:41:57.598Z,19.50
2018-03-28T01:44:27.567Z,16.10
2018-03-28T01:46:56.826Z,19.20
2018-03-28T01:49:26.678Z,15.95
2018-03-28T01:51:56.561Z,14.95
2018-03-28T01:54:25.646Z,14.32
2018-03-28T01:56:54.778Z,19.55
2018-03-28T01:59:23.849Z,24.45
2018-03-28T02:01:52.994Z,26.50
2018-03-28T02:04:22.069Z,17.50
2018-03-28T02:06:51.153Z,23.62
2018-03-28T02:09:20.994Z,16.92
2018-03-28T02:11:50.864Z,19.62
2018-03-28T02:14:19.927Z,19.23
2018-03-28T02:16:49.768Z,19.90
2018-03-28T02:19:18.846Z,18.12
2018-03-28T02:21:47.927Z,22.48
2018-03-28T02:24:17.002Z,21.58
2018-03-28T02:26:46.617Z,21.92
2018-03-28T02:29:15.766Z,20.30
2018-03-28T02:31:44.847Z,19.95
2018-03-28T02:34:13.958Z,24.40
2018-03-28T02:36:43.060Z,20.05
2018-03-28T02:39:12.236Z,25.02
2018-03-28T02:41:41.312Z,23.20
2018-03-28T02:44:10.396Z,21.92
2018-03-28T02:46:39.470Z,24.40
2018-03-28T02:49:08.550Z,24.90
2018-03-28T02:51:37.683Z,26.60
2018-03-28T02:54:06.855Z,23.98
2018-03-28T02:56:35.946Z,27.77
2018-03-28T02:59:05.955Z,29.12
2018-03-28T03:01:35.830Z,27.30
2018-03-28T03:04:04.907Z,27.75
2018-03-28T03:06:34.862Z,26.12
2018-03-28T03:09:03.926Z,30.98
2018-03-28T03:11:33.085Z,29.33
2018-03-28T03:14:02.162Z,26.98
2018-03-28T03:16:32.039Z,27.13
2018-03-28T03:19:01.109Z,31.65
2018-03-28T03:21:30.944Z,27.50
2018-03-28T03:24:00.015Z,27.45
2018-03-28T03:26:29.117Z,30.00
2018-03-28T03:28:58.442Z,33.42
2018-03-28T03:31:27.586Z,32.00
2018-03-28T03:33:56.662Z,34.22
2018-03-28T03:36:25.767Z,33.63
2018-03-28T03:38:54.870Z,35.70
2018-03-28T03:41:23.941Z,36.03
2018-03-28T03:43:53.017Z,32.58
2018-03-28T03:46:22.909Z,32.15
2018-03-28T03:48:51.978Z,36.08
2018-03-28T03:51:21.045Z,37.35
2018-03-28T03:53:50.146Z,38.45
2018-03-28T03:56:19.222Z,43.80
2018-03-28T03:58:48.397Z,37.65
2018-03-28T04:01:17.448Z,41.45
2018-03-28T04:03:46.523Z,40.38
2018-03-28T04:06:16.370Z,39.83
2018-03-28T04:08:45.474Z,39.17
2018-03-28T04:11:14.739Z,41.70
2018-03-28T04:13:43.823Z,38.20
2018-03-28T04:16:12.946Z,43.95
2018-03-28T04:18:42.040Z,39.83
2018-03-28T04:21:11.166Z,41.20
2018-03-28T04:23:40.243Z,48.63
2018-03-28T04:26:09.314Z,41.42
2018-03-28T04:28:38.431Z,43.92
2018-03-28T04:31:07.506Z,43.28
2018-03-28T04:33:36.580Z,42.75
2018-03-28T04:36:05.650Z,45.50
2018-03-28T04:38:34.728Z,48.35
2018-03-28T04:41:03.806Z,46.30
2018-03-28T04:43:32.925Z,41.20
2018-03-28T04:46:02.003Z,49.83
2018-03-28T04:48:31.074Z,42.50
2018-03-28T04:51:00.146Z,42.50
2018-03-28T04:53:29.213Z,46.85
2018-03-28T04:55:58.290Z,49.03
2018-03-28T04:58:27.430Z,44.22
2018-03-28T05:00:56.506Z,48.53
2018-03-28T05:03:25.579Z,52.13
2018-03-28T05:05:55.538Z,48.22
2018-03-28T05:08:24.610Z,45.67
2018-03-28T05:10:53.695Z,51.33
2018-03-28T05:13:22.767Z,51.90
2018-03-28T05:15:52.091Z,46.13
2018-03-28T05:18:21.166Z,48.60
2018-03-28T05:20:51.026Z,47.65
2018-03-28T05:23:20.136Z,50.33
2018-03-28T05:25:49.211Z,47.80
2018-03-28T05:28:19.050Z,57.75
2018-03-28T05:30:48.885Z,53.75
2018-03-28T05:33:17.957Z,53.40
2018-03-28T05:35:47.083Z,48.58
2018-03-28T05:38:17.047Z,50.50
2018-03-28T05:40:46.120Z,53.72
2018-03-28T05:43:15.962Z,50.53
2018-03-28T05:45:45.802Z,61.28
2018-03-28T05:48:14.947Z,56.45
2018-03-28T05:50:44.066Z,55.70
2018-03-28T05:53:13.135Z,57.05
2018-03-28T05:55:42.209Z,59.03
2018-03-28T05:58:11.367Z,54.95
2018-03-28T06:00:40.454Z,60.12
2018-03-28T06:03:10.405Z,63.20
2018-03-28T06:05:39.475Z,62.25
2018-03-28T06:08:08.546Z,66.20
2018-03-28T06:10:37.615Z,63.33
2018-03-28T06:13:07.453Z,61.45
2018-03-28T06:15:36.602Z,63.35
2018-03-28T06:18:05.681Z,66.15
2018-03-28T06:20:34.757Z,65.37
2018-03-28T06:23:04.602Z,66.37
2018-03-28T06:25:33.682Z,64.53
2018-03-28T06:28:02.754Z,61.35
2018-03-28T06:30:31.890Z,70.12
2018-03-28T06:33:00.965Z,71.03
2018-03-28T06:35:30.033Z,67.62
2018-03-28T06:37:59.164Z,67.60
2018-03-28T06:40:28.276Z,72.82
2018-03-28T06:42:57.402Z,72.65
2018-03-28T06:45:26.479Z,74.28
2018-03-28T06:47:56.314Z,74.60
2018-03-28T06:50:26.151Z,75.10
2018-03-28T06:52:56.041Z,72.43
2018-03-28T06:55:25.150Z,82.30
2018-03-28T06:57:55.724Z,75.68
2018-03-28T07:00:25.561Z,73.20
2018-03-28T07:02:55.434Z,72.68
2018-03-28T07:05:24.532Z,82.93
2018-03-28T07:07:53.614Z,75.37
2018-03-28T07:10:22.689Z,82.32
2018-03-28T07:12:51.763Z,80.07
2018-03-28T07:15:20.838Z,88.15
2018-03-28T07:17:50.699Z,82.72
2018-03-28T07:20:19.766Z,79.70
2018-03-28T07:22:49.837Z,83.45
2018-03-28T07:25:18.902Z,81.12
2018-03-28T07:27:48.766Z,80.40
2018-03-28T07:30:17.843Z,85.47
2018-03-28T07:32:47.741Z,87.72
2018-03-28T07:35:16.853Z,88.80
2018-03-28T07:37:45.922Z,84.62
2018-03-28T07:40:14.997Z,98.18
2018-03-28T07:42:44.842Z,84.72
2018-03-28T07:45:14.677Z,83.82
2018-03-28T07:47:43.752Z,89.60
2018-03-28T07:50:12.885Z,88.60
2018-03-28T07:52:42.722Z,90.30
2018-03-28T07:55:12.065Z,91.43
2018-03-28T07:57:41.166Z,83.57
2018-03-28T08:00:10.275Z,93.15
2018-03-28T08:02:39.345Z,92.57
2018-03-28T08:05:08.417Z,86.47
2018-03-28T08:07:37.526Z,89.30
2018-03-28T08:10:06.592Z,92.78
2018-03-28T08:12:36.486Z,89.55
2018-03-28T08:15:05.727Z,86.43
2018-03-28T08:17:35.585Z,89.90
2018-03-28T08:20:04.717Z,89.47
2018-03-28T08:22:33.810Z,90.75
2018-03-28T08:25:02.931Z,93.28
2018-03-28T08:27:32.001Z,86.55
2018-03-28T08:30:01.853Z,101.38
2018-03-28T08:32:30.925Z,99.25
2018-03-28T08:35:00.011Z,99.87
2018-03-28T08:37:29.082Z,99.07
2018-03-28T08:39:58.157Z,101.35
2018-03-28T08:42:28.040Z,103.30
2018-03-28T08:44:57.885Z,101.57
2018-03-28T08:47:27.014Z,95.32
2018-03-28T08:49:56.158Z,101.65
2018-03-28T08:52:25.224Z,99.37
2018-03-28T08:54:54.297Z,109.25
2018-03-28T08:57:23.383Z,104.22
2018-03-28T08:59:52.466Z,102.47
2018-03-28T09:02:21.618Z,109.75
2018-03-28T09:04:50.702Z,103.95
2018-03-28T09:07:20.554Z,115.60
2018-03-28T09:09:49.630Z,100.60
2018-03-28T09:12:18.712Z,106.40
2018-03-28T09:14:48.614Z,102.22
2018-03-28T09:17:17.762Z,105.55
2018-03-28T09:19:46.922Z,106.43
2018-03-28T09:22:16.897Z,101.65
2018-03-28T09:24:45.982Z,102.53
2018-03-28T09:27:15.057Z,107.43
2018-03-28T09:29:44.911Z,101.60
2018-03-28T09:32:14.045Z,96.70
2018-03-28T09:34:43.551Z,101.95
2018-03-28T09:37:12.695Z,92.00
2018-03-28T09:39:41.770Z,101.85
2018-03-28T09:42:11.116Z,102.25
2018-03-28T09:44:40.193Z,94.47
2018-03-28T09:47:09.327Z,92.93
2018-03-28T09:49:38.402Z,93.25
2018-03-28T09:52:07.480Z,97.68
2018-03-28T09:54:37.378Z,102.38
2018-03-28T09:57:06.566Z,104.80
2018-03-28T09:59:35.684Z,99.40
2018-03-28T10:02:10.679Z,98.28
2018-03-28T10:04:45.361Z,97.57
2018-03-28T10:07:14.435Z,93.80
2018-03-28T10:09:44.362Z,94.05
2018-03-28T10:12:14.193Z,96.12
2018-03-28T10:14:44.026Z,91.35
2018-03-28T10:17:13.862Z,96.22
2018-03-28T10:19:42.939Z,91.05
2018-03-28T10:22:12.014Z,94.53
2018-03-28T10:24:41.087Z,94.97
2018-03-28T10:27:10.926Z,94.40
2018-03-28T10:29:39.993Z,91.93
2018-03-28T10:32:09.069Z,88.82
2018-03-28T10:34:38.138Z,90.30
2018-03-28T10:37:07.978Z,104.18
2018-03-28T10:39:37.778Z,88.87
2018-03-28T10:42:06.883Z,96.57
2018-03-28T10:44:35.951Z,91.45
2018-03-28T10:47:05.021Z,86.12
2018-03-28T10:49:35.078Z,85.97
2018-03-28T10:52:04.146Z,85.07
2018-03-28T10:54:33.414Z,79.15
2018-03-28T10:57:02.509Z,83.93
2018-03-28T10:59:31.614Z,86.50
2018-03-28T11:02:00.682Z,82.28
2018-03-28T11:04:29.791Z,84.10
2018-03-28T11:07:00.403Z,81.35
2018-03-28T11:09:29.548Z,81.18
2018-03-28T11:11:58.617Z,86.10
2018-03-28T11:14:27.719Z,78.25
2018-03-28T11:16:56.849Z,88.45
2018-03-28T11:19:25.922Z,86.30
2018-03-28T11:21:55.754Z,88.30
2018-03-28T11:24:25.646Z,85.00
2018-03-28T11:26:54.689Z,85.10
2018-03-28T11:29:24.522Z,91.35
2018-03-28T11:31:53.594Z,88.32
2018-03-28T11:34:22.661Z,85.00
2018-03-28T11:36:51.734Z,80.68
2018-03-28T11:39:21.618Z,87.65
2018-03-28T11:41:50.690Z,87.60
2018-03-28T11:44:19.768Z,79.68
2018-03-28T11:46:49.025Z,82.75
2018-03-28T11:49:18.099Z,82.53
2018-03-28T11:51:47.942Z,78.62
2018-03-28T11:54:17.783Z,77.55
2018-03-28T11:56:46.901Z,72.00
2018-03-28T11:59:15.981Z,78.80
2018-03-28T12:01:45.882Z,72.35
2018-03-28T12:04:14.954Z,74.70
2018-03-28T12:06:44.028Z,68.53
2018-03-28T12:09:13.934Z,67.00
2018-03-28T12:11:42.998Z,64.90
2018-03-28T12:14:12.076Z,60.50
2018-03-28T12:16:41.949Z,70.25
2018-03-28T12:19:11.081Z,67.12
2018-03-28T12:21:40.146Z,57.00
2018-03-28T12:24:09.219Z,61.17
2018-03-28T12:26:38.314Z,53.97
2018-03-28T12:29:07.433Z,63.70
2018-03-28T12:31:36.504Z,61.65
2018-03-28T12:34:05.574Z,62.03
2018-03-28T12:36:35.429Z,57.83
2018-03-28T12:39:04.514Z,57.67
2018-03-28T12:41:34.351Z,60.90
2018-03-28T12:44:03.430Z,59.25
2018-03-28T12:46:32.505Z,55.85
2018-03-28T12:49:01.586Z,54.45
2018-03-28T12:51:31.447Z,52.90
2018-03-28T12:54:00.614Z,54.08
2018-03-28T12:56:30.483Z,49.78
2018-03-28T12:58:59.699Z,51.30
2018-03-28T13:01:28.771Z,54.72
2018-03-28T13:03:58.643Z,63.00
2018-03-28T13:06:27.722Z,54.88
2018-03-28T13:08:56.854Z,53.72
2018-03-28T13:11:25.914Z,52.03
2018-03-28T13:13:54.985Z,57.80
2018-03-28T13:16:25.353Z,51.75
2018-03-28T13:18:54.615Z,55.63
2018-03-28T13:21:23.686Z,56.13
2018-03-28T13:23:53.778Z,61.05
2018-03-28T13:26:22.850Z,53.55
2018-03-28T13:28:52.693Z,60.25
2018-03-28T13:31:21.787Z,57.00
2018-03-28T13:33:50.918Z,52.50
2018-03-28T13:36:20.025Z,58.13
2018-03-28T13:38:49.131Z,60.85
2018-03-28T13:41:18.219Z,60.70
2018-03-28T13:43:48.078Z,60.20
2018-03-28T13:46:17.185Z,57.50
2018-03-28T13:48:46.281Z,55.70
2018-03-28T13:51:16.109Z,55.78
2018-03-28T13:53:45.327Z,53.25
2018-03-28T13:56:15.138Z,57.40
2018-03-28T13:58:44.970Z,52.40
2018-03-28T14:01:14.798Z,54.88
2018-03-28T14:03:44.639Z,48.63
2018-03-28T14:06:13.730Z,53.15
2018-03-28T14:08:44.274Z,51.47
2018-03-28T14:11:13.406Z,53.63
2018-03-28T14:13:42.473Z,48.30
2018-03-28T14:16:11.533Z,54.20
2018-03-28T14:18:40.707Z,58.72
2018-03-28T14:21:09.794Z,53.15
2018-03-28T14:23:38.878Z,49.58
2018-03-28T14:26:07.938Z,48.47
2018-03-28T14:28:37.829Z,54.75
2018-03-28T14:31:07.217Z,55.25
2018-03-28T14:33:36.278Z,52.38
2018-03-28T14:36:05.338Z,55.47
2018-03-28T14:38:34.405Z,52.38
2018-03-28T14:41:03.575Z,51.33
2018-03-28T14:43:32.657Z,53.17
2018-03-28T14:46:01.722Z,52.20
2018-03-28T14:48:30.856Z,52.72
2018-03-28T14:51:00.690Z,53.30
2018-03-28T14:53:30.521Z,54.08
2018-03-28T14:56:00.357Z,49.65
2018-03-28T14:58:29.417Z,49.08
2018-03-28T15:00:59.402Z,52.70
2018-03-28T15:03:28.629Z,52.40
2018-03-28T15:05:57.879Z,50.90
2018-03-28T15:08:26.994Z,52.90
2018-03-28T15:10:56.066Z,52.40
2018-03-28T15:13:25.138Z,48.70
2018-03-28T15:15:54.997Z,46.17
2018-03-28T15:18:24.134Z,44.63
2018-03-28T15:20:53.961Z,45.65
2018-03-28T15:23:23.070Z,52.83
2018-03-28T15:25:52.138Z,47.75
2018-03-28T15:28:21.977Z,47.50
2018-03-28T15:30:51.042Z,56.37
2018-03-28T15:33:20.110Z,52.80
2018-03-28T15:35:49.172Z,48.40
2018-03-28T15:38:18.321Z,52.03
2018-03-28T15:40:47.417Z,51.97
2018-03-28T15:43:16.524Z,48.97
2018-03-28T15:45:46.356Z,50.00
2018-03-28T15:48:15.418Z,53.20
2018-03-28T15:50:44.503Z,50.47
2018-03-28T15:53:13.567Z,58.65
2018-03-28T15:55:43.446Z,49.17
2018-03-28T15:58:12.509Z,54.53
2018-03-28T16:00:42.346Z,58.35
2018-03-28T16:03:12.177Z,54.40
2018-03-28T16:05:41.250Z,57.45
2018-03-28T16:08:10.312Z,57.22
2018-03-28T16:10:39.378Z,53.45
2018-03-28T16:13:08.558Z,55.38
2018-03-28T16:15:37.621Z,60.00
2018-03-28T16:18:07.527Z,58.47
2018-03-28T16:20:36.602Z,54.67
2018-03-28T16:23:05.670Z,56.22
2018-03-28T16:25:35.501Z,57.33
2018-03-28T16:28:05.325Z,56.90
2018-03-28T16:30:35.155Z,58.97
2018-03-28T16:33:04.994Z,60.85
2018-03-28T16:35:34.134Z,70.40
2018-03-28T16:38:03.199Z,53.92
2018-03-28T16:40:33.030Z,62.42
2018-03-28T16:43:02.865Z,59.28
2018-03-28T16:45:32.010Z,62.55
2018-03-28T16:48:01.885Z,66.37
2018-03-28T16:50:31.761Z,63.58
2018-03-28T16:53:00.830Z,79.75
2018-03-28T16:55:30.674Z,70.95
2018-03-28T16:57:59.761Z,73.43
2018-03-28T17:00:29.633Z,71.55
2018-03-28T17:02:58.718Z,60.08
2018-03-28T17:05:27.786Z,66.65
2018-03-28T17:07:56.851Z,62.13
2018-03-28T17:10:25.918Z,68.87
2018-03-28T17:12:55.781Z,66.20
2018-03-28T17:15:24.861Z,62.40
2018-03-28T17:17:54.749Z,67.62
2018-03-28T17:20:24.594Z,72.03
2018-03-28T17:22:53.723Z,81.00
2018-03-28T17:25:22.866Z,77.93
2018-03-28T17:27:52.119Z,71.62
2018-03-28T17:30:21.200Z,99.25
2018-03-28T17:32:50.323Z,75.78
2018-03-28T17:35:19.446Z,68.50
2018-03-28T17:37:48.521Z,65.70
2018-03-28T17:40:17.646Z,71.90
2018-03-28T17:42:46.714Z,72.50
2018-03-28T17:45:15.818Z,81.80
2018-03-28T17:47:45.670Z,68.62
2018-03-28T17:50:14.781Z,68.90
2018-03-28T17:52:44.363Z,72.87
2018-03-28T17:55:13.432Z,77.18
2018-03-28T17:57:42.520Z,78.70
2018-03-28T18:00:12.356Z,67.93
2018-03-28T18:02:41.434Z,76.18
2018-03-28T18:05:10.501Z,67.43
2018-03-28T18:07:39.582Z,68.85
2018-03-28T18:10:08.678Z,67.72
2018-03-28T18:12:38.538Z,68.65
2018-03-28T18:15:07.602Z,75.47
2018-03-28T18:17:36.666Z,76.72
2018-03-28T18:20:05.729Z,73.93
2018-03-28T18:22:35.572Z,77.95
2018-03-28T18:25:04.651Z,72.65
2018-03-28T18:27:33.765Z,69.95
2018-03-28T18:30:02.818Z,79.10
2018-03-28T18:32:31.913Z,133.02
2018-03-28T18:35:01.773Z,78.80
2018-03-28T18:37:30.840Z,74.37
2018-03-28T18:40:00.744Z,71.87
2018-03-28T18:42:30.788Z,79.62
2018-03-28T18:44:59.892Z,80.68
2018-03-28T18:47:28.954Z,76.37
2018-03-28T18:49:58.028Z,79.22
2018-03-28T18:52:27.872Z,92.62
2018-03-28T18:54:56.937Z,85.80
2018-03-28T18:57:26.069Z,81.32
2018-03-28T18:59:55.148Z,83.78
2018-03-28T19:02:24.279Z,85.53
2018-03-28T19:04:53.351Z,80.82
2018-03-28T19:07:22.456Z,82.82
2018-03-28T19:09:51.535Z,82.78
2018-03-28T19:12:21.417Z,85.32
2018-03-28T19:14:50.490Z,86.22
2018-03-28T19:17:19.566Z,82.50
2018-03-28T19:19:48.642Z,87.90
2018-03-28T19:22:17.716Z,94.78
2018-03-28T19:24:46.824Z,90.12
2018-03-28T19:27:15.900Z,89.62
2018-03-28T19:29:44.978Z,86.93
2018-03-28T19:32:14.047Z,92.65
2018-03-28T19:34:43.122Z,93.18
2018-03-28T19:37:12.255Z,94.20
2018-03-28T19:39:42.099Z,89.35
2018-03-28T19:42:11.175Z,102.32
2018-03-28T19:44:40.282Z,97.80
2018-03-28T19:47:09.509Z,94.47
2018-03-28T19:49:39.356Z,94.37
2018-03-28T19:52:09.279Z,104.00
2018-03-28T19:54:39.123Z,103.00
2018-03-28T19:57:08.201Z,99.40
2018-03-28T19:59:37.967Z,104.95
2018-03-28T20:02:07.078Z,110.03
2018-03-28T20:04:36.217Z,101.82
2018-03-28T20:07:05.295Z,106.90
2018-03-28T20:09:34.430Z,103.43
2018-03-28T20:12:03.511Z,106.32
2018-03-28T20:14:32.671Z,104.87
2018-03-28T20:17:01.746Z,108.60
2018-03-28T20:19:30.824Z,103.10
2018-03-28T20:22:00.663Z,111.88
2018-03-28T20:24:29.738Z,110.88
2018-03-28T20:26:58.820Z,108.25
2018-03-28T20:29:27.898Z,104.18
2018-03-28T20:31:56.970Z,112.57
2018-03-28T20:34:26.045Z,110.78
2018-03-28T20:36:55.181Z,111.22
2018-03-28T20:39:24.319Z,114.88
2018-03-28T20:41:54.162Z,122.00
2018-03-28T20:44:23.289Z,113.43
2018-03-28T20:46:53.094Z,110.20
2018-03-28T20:49:22.930Z,109.18
2018-03-28T20:51:52.003Z,114.90
2018-03-28T20:54:21.109Z,117.03
2018-03-28T20:56:50.181Z,113.10
2018-03-28T20:59:19.394Z,102.03
2018-03-28T21:01:48.475Z,104.97
2018-03-28T21:04:17.598Z,110.15
2018-03-28T21:06:46.709Z,108.53
2018-03-28T21:09:15.782Z,113.22
2018-03-28T21:11:45.671Z,107.03
2018-03-28T21:14:14.769Z,103.68
2018-03-28T21:16:43.841Z,107.50
2018-03-28T21:19:13.682Z,113.97
2018-03-28T21:21:43.550Z,112.85
2018-03-28T21:24:12.614Z,113.78
2018-03-28T21:26:42.582Z,111.57
2018-03-28T21:29:11.658Z,111.50
2018-03-28T21:31:41.493Z,115.55
2018-03-28T21:34:11.326Z,102.22
2018-03-28T21:36:40.385Z,92.78
2018-03-28T21:39:09.621Z,100.22
2018-03-28T21:41:38.682Z,93.50
2018-03-28T21:44:07.786Z,93.85
2018-03-28T21:46:36.936Z,97.15
2018-03-28T21:49:06.106Z,87.37
2018-03-28T21:51:35.164Z,88.00
2018-03-28T21:54:04.225Z,84.15
2018-03-28T21:56:33.289Z,90.40
2018-03-28T21:59:02.358Z,96.72
2018-03-28T22:01:31.421Z,85.30
2018-03-28T22:04:01.250Z,87.65
2018-03-28T22:06:31.087Z,91.97
2018-03-28T22:09:00.949Z,84.60
2018-03-28T22:11:30.009Z,82.28
2018-03-28T22:13:59.069Z,82.90
2018-03-28T22:16:28.134Z,82.22
2018-03-28T22:18:58.041Z,77.35
2018-03-28T22:21:27.115Z,78.47
2018-03-28T22:23:56.222Z,72.82
2018-03-28T22:26:25.314Z,77.18
2018-03-28T22:28:54.372Z,72.43
2018-03-28T22:31:23.442Z,80.07
2018-03-28T22:36:27.795Z,74.85
2018-03-28T22:38:56.869Z,77.95
2018-03-28T22:41:26.148Z,73.12
2018-03-28T22:43:55.354Z,71.22
2018-03-28T22:46:24.422Z,71.50
2018-03-28T22:48:54.253Z,68.72
2018-03-28T22:51:23.382Z,73.07
2018-03-28T22:53:52.446Z,73.32
2018-03-28T22:56:21.509Z,69.30
2018-03-28T22:58:50.574Z,71.18
2018-03-28T23:01:19.638Z,78.57
2018-03-28T23:03:48.734Z,73.70
2018-03-28T23:06:18.109Z,73.07
2018-03-28T23:08:47.173Z,74.72
2018-03-28T23:11:16.278Z,73.40
2018-03-28T23:13:45.380Z,67.72
2018-03-28T23:16:14.479Z,66.82
2018-03-28T23:18:43.576Z,72.65
2018-03-28T23:21:13.597Z,72.53
2018-03-28T23:23:43.515Z,75.85
2018-03-28T23:26:12.574Z,67.90
2018-03-28T23:28:41.643Z,76.53
2018-03-28T23:31:10.764Z,68.82
2018-03-28T23:33:40.631Z,72.22
2018-03-28T23:36:09.741Z,69.97
2018-03-28T23:38:38.838Z,71.75
2018-03-28T23:41:07.970Z,69.62
2018-03-28T23:43:37.038Z,70.60
2018-03-28T23:46:06.926Z,70.68
2018-03-28T23:48:35.986Z,73.55
2018-03-28T23:51:05.814Z,82.12
2018-03-28T23:53:35.650Z,71.28
2018-03-28T23:56:04.709Z,70.53
2018-03-28T23:58:33.769Z,71.78
